Map

Track Data

SID SEASON NUMBER BASIN SUBBASIN NAME ISO_TIME NATURE LAT LON WMO_WIND WMO_PRES WMO_AGENCY TRACK_TYPE DIST2LAND LANDFALL IFLAG USA_AGENCY USA_ATCF_ID USA_LAT USA_LON USA_RECORD USA_STATUS USA_WIND USA_PRES USA_SSHS USA_R34_NE USA_R34_SE USA_R34_SW USA_R34_NW USA_R50_NE USA_R50_SE USA_R50_SW USA_R50_NW USA_R64_NE USA_R64_SE USA_R64_SW USA_R64_NW USA_POCI USA_ROCI USA_RMW USA_EYE TOKYO_LAT TOKYO_LON TOKYO_GRADE TOKYO_WIND TOKYO_PRES TOKYO_R50_DIR TOKYO_R50_LONG TOKYO_R50_SHORT TOKYO_R30_DIR TOKYO_R30_LONG TOKYO_R30_SHORT TOKYO_LAND CMA_LAT CMA_LON CMA_CAT CMA_WIND CMA_PRES HKO_LAT HKO_LON HKO_CAT HKO_WIND HKO_PRES NEWDELHI_LAT NEWDELHI_LON NEWDELHI_GRADE NEWDELHI_WIND NEWDELHI_PRES NEWDELHI_CI NEWDELHI_DP NEWDELHI_POCI REUNION_LAT REUNION_LON REUNION_TYPE REUNION_WIND REUNION_PRES REUNION_TNUM REUNION_CI REUNION_RMW REUNION_R34_NE REUNION_R34_SE REUNION_R34_SW REUNION_R34_NW REUNION_R50_NE REUNION_R50_SE REUNION_R50_SW REUNION_R50_NW REUNION_R64_NE REUNION_R64_SE REUNION_R64_SW REUNION_R64_NW BOM_LAT BOM_LON BOM_TYPE BOM_WIND BOM_PRES BOM_TNUM BOM_CI BOM_RMW BOM_R34_NE BOM_R34_SE BOM_R34_SW BOM_R34_NW BOM_R50_NE BOM_R50_SE BOM_R50_SW BOM_R50_NW BOM_R64_NE BOM_R64_SE BOM_R64_SW BOM_R64_NW BOM_ROCI BOM_POCI BOM_EYE BOM_POS_METHOD BOM_PRES_METHOD NADI_LAT NADI_LON NADI_CAT NADI_WIND NADI_PRES WELLINGTON_LAT WELLINGTON_LON WELLINGTON_WIND WELLINGTON_PRES DS824_LAT DS824_LON DS824_STAGE DS824_WIND DS824_PRES TD9636_LAT TD9636_LON TD9636_STAGE TD9636_WIND TD9636_PRES TD9635_LAT TD9635_LON TD9635_WIND TD9635_PRES TD9635_ROCI NEUMANN_LAT NEUMANN_LON NEUMANN_CLASS NEUMANN_WIND NEUMANN_PRES MLC_LAT MLC_LON MLC_CLASS MLC_WIND MLC_PRES USA_GUST BOM_GUST BOM_GUST_PER REUNION_GUST REUNION_GUST_PER USA_SEAHGT USA_SEARAD_NE USA_SEARAD_SE USA_SEARAD_SW USA_SEARAD_NW STORM_SPEED STORM_DIR
1969281N20292 1969 98 NA NA KARA 1969-10-07 12:00:00 TS 20.5000 -68.0000 25 hurdat_atl main 191 162 O_____________ hurdat_atl AL251969 20.5000 -68.0000 TD 25 -1 12 280
1969281N20292 1969 98 NA NA KARA 1969-10-07 15:00:00 TS 20.6007 -68.6398 main 162 148 P_____________ AL251969 20.6007 -68.6398 TD 25 -1 11 280
1969281N20292 1969 98 NA NA KARA 1969-10-07 18:00:00 TS 20.7000 -69.2000 25 hurdat_atl main 148 138 O_____________ hurdat_atl AL251969 20.7000 -69.2000 TD 25 -1 9 282
1969281N20292 1969 98 NA NA KARA 1969-10-07 21:00:00 TS 20.7997 -69.6301 main 140 135 P_____________ AL251969 20.7997 -69.6301 TD 25 -1 8 285
1969281N20292 1969 98 NA NA KARA 1969-10-08 00:00:00 TS 20.9000 -70.0000 25 hurdat_atl main 138 129 O_____________ hurdat_atl AL251969 20.9000 -70.0000 TD 25 -1 7 286
1969281N20292 1969 98 NA NA KARA 1969-10-08 03:00:00 TS 20.9997 -70.3701 main 135 134 P_____________ AL251969 20.9997 -70.3701 TD 25 -1 8 285
1969281N20292 1969 98 NA NA KARA 1969-10-08 06:00:00 TS 21.1000 -70.8000 25 hurdat_atl main 145 145 O_____________ hurdat_atl AL251969 21.1000 -70.8000 TD 25 -1 9 278
1969281N20292 1969 98 NA NA KARA 1969-10-08 09:00:00 TS 21.1251 -71.3710 main 145 104 P_____________ AL251969 21.1251 -71.3710 TD 27 -1 11 280
1969281N20292 1969 98 NA NA KARA 1969-10-08 12:00:00 TS 21.3000 -72.0000 30 hurdat_atl main 104 69 O_____________ hurdat_atl AL251969 21.3000 -72.0000 TD 30 -1 14 301
1969281N20292 1969 98 NA NA KARA 1969-10-08 15:00:00 TS 21.8403 -72.6587 main 73 73 P_____________ AL251969 21.8403 -72.6587 TD 30 -1 16 317
1969281N20292 1969 98 NA NA KARA 1969-10-08 18:00:00 TS 22.5000 -73.2000 30 hurdat_atl main 145 145 O_____________ hurdat_atl AL251969 22.5000 -73.2000 TD 30 -1 14 327
1969281N20292 1969 98 NA NA KARA 1969-10-08 21:00:00 TS 22.9996 -73.4832 main 203 203 P_____________ AL251969 22.9996 -73.4832 TD 30 -1 11 340
1969281N20292 1969 98 NA NA KARA 1969-10-09 00:00:00 TS 23.5000 -73.6000 30 hurdat_atl main 260 260 O_____________ hurdat_atl AL251969 23.5000 -73.6000 TD 30 -1 11 351
1969281N20292 1969 98 NA NA KARA 1969-10-09 03:00:00 TS 24.1000 -73.6876 main 328 328 P_____________ AL251969 24.1000 -73.6876 TD 30 -1 12 356
1969281N20292 1969 98 NA NA KARA 1969-10-09 06:00:00 TS 24.7000 -73.7000 30 hurdat_atl main 394 394 O_____________ hurdat_atl AL251969 24.7000 -73.7000 TD 30 -1 11 1
1969281N20292 1969 98 NA NA KARA 1969-10-09 09:00:00 TS 25.1775 -73.6798 main 410 410 P_____________ AL251969 25.1775 -73.6798 TD 30 -1 10 5
1969281N20292 1969 98 NA NA KARA 1969-10-09 12:00:00 TS 25.7000 -73.6000 30 1006 hurdat_atl main 433 433 O_____________ hurdat_atl AL251969 25.7000 -73.6000 TD 30 1006 -1 13 8
1969281N20292 1969 98 NA NA KARA 1969-10-09 15:00:00 TS 26.4725 -73.4802 main 475 475 P_____________ AL251969 26.4725 -73.4802 TD 32 -1 15 10
1969281N20292 1969 98 NA NA KARA 1969-10-09 18:00:00 TS 27.2000 -73.3000 35 hurdat_atl main 524 524 O_____________ hurdat_atl AL251969 27.2000 -73.3000 TS 35 0 12 18
1969281N20292 1969 98 NA NA KARA 1969-10-09 21:00:00 TS 27.6250 -73.0574 main 562 562 P_____________ AL251969 27.6250 -73.0574 TS 37 0 8 32
1969281N20292 1969 98 NA NA KARA 1969-10-10 00:00:00 TS 27.9000 -72.8000 40 hurdat_atl main 604 604 O_____________ hurdat_atl AL251969 27.9000 -72.8000 TS 40 0 7 37
1969281N20292 1969 98 NA NA KARA 1969-10-10 03:00:00 TS 28.1800 -72.5849 main 638 638 P_____________ AL251969 28.1800 -72.5849 TS 42 0 6 35
1969281N20292 1969 98 NA NA KARA 1969-10-10 06:00:00 TS 28.4000 -72.4000 45 hurdat_atl main 666 666 O_____________ hurdat_atl AL251969 28.4000 -72.4000 TS 45 0 4 38
1969281N20292 1969 98 NA NA KARA 1969-10-10 09:00:00 TS 28.5273 -72.2793 main 680 680 P_____________ AL251969 28.5273 -72.2793 TS 42 0 4 41
1969281N20292 1969 98 NA NA KARA 1969-10-10 12:00:00 TS 28.7000 -72.1000 40 1001 hurdat_atl main 709 709 O_____________ hurdat_atl AL251969 28.7000 -72.1000 TS 40 1001 0 7 40
1969281N20292 1969 98 NA NA KARA 1969-10-10 15:00:00 TS 29.0926 -71.7382 main 766 755 P_____________ AL251969 29.0926 -71.7382 TS 40 1000 0 11 41
1969281N20292 1969 98 NA NA KARA 1969-10-10 18:00:00 TS 29.5000 -71.3000 40 hurdat_atl main 758 755 I_____________ hurdat_atl AL251969 29.5000 -71.3000 TS 40 1000 0 10 51
1969281N20292 1969 98 NA NA KARA 1969-10-10 21:00:00 TS 29.6999 -70.8917 main 766 764 P_____________ AL251969 29.6999 -70.8917 TS 37 999 0 8 60
1969281N20292 1969 98 NA NA KARA 1969-10-11 00:00:00 TS 29.9000 -70.5000 35 999 hurdat_atl main 776 775 O_____________ hurdat_atl AL251969 29.9000 -70.5000 TS 35 999 0 9 54
1969281N20292 1969 98 NA NA KARA 1969-10-11 03:00:00 TS 30.2026 -70.0904 main 781 765 P_____________ AL251969 30.2026 -70.0904 TS 35 0 10 37
1969281N20292 1969 98 NA NA KARA 1969-10-11 06:00:00 TS 30.7000 -69.8000 35 hurdat_atl main 765 726 O_____________ hurdat_atl AL251969 30.7000 -69.8000 TS 35 0 13 14
1969281N20292 1969 98 NA NA KARA 1969-10-11 09:00:00 TS 31.4898 -69.7175 main 718 653 P_____________ AL251969 31.4898 -69.7175 TS 35 0 17 0
1969281N20292 1969 98 NA NA KARA 1969-10-11 12:00:00 TS 32.4000 -69.8000 35 hurdat_atl main 646 580 O_____________ hurdat_atl AL251969 32.4000 -69.8000 TS 35 0 18 353
1969281N20292 1969 98 NA NA KARA 1969-10-11 15:00:00 TS 33.2900 -69.9690 main 574 522 P_____________ AL251969 33.2900 -69.9690 TS 35 0 16 348
1969281N20292 1969 98 NA NA KARA 1969-10-11 18:00:00 TS 34.0000 -70.2000 35 1001 hurdat_atl main 522 492 O_____________ hurdat_atl AL251969 34.0000 -70.2000 TS 35 1001 0 11 340
1969281N20292 1969 98 NA NA KARA 1969-10-11 21:00:00 TS 34.3475 -70.4230 main 492 467 P_____________ AL251969 34.3475 -70.4230 TS 37 1000 0 6 326
1969281N20292 1969 98 NA NA KARA 1969-10-12 00:00:00 TS 34.5000 -70.6000 40 hurdat_atl main 467 460 I_____________ hurdat_atl AL251969 34.5000 -70.6000 TS 40 999 0 4 338
1969281N20292 1969 98 NA NA KARA 1969-10-12 03:00:00 TS 34.6795 -70.5904 main 460 448 P_____________ AL251969 34.6795 -70.5904 TS 42 998 0 3 346
1969281N20292 1969 98 NA NA KARA 1969-10-12 06:00:00 TS 34.8000 -70.7000 45 997 hurdat_atl main 448 393 O_____________ hurdat_atl AL251969 34.8000 -70.7000 TS 45 997 0 7 292
1969281N20292 1969 98 NA NA KARA 1969-10-12 09:00:00 TS 34.9265 -71.3448 main 393 340 P_____________ AL251969 34.9265 -71.3448 TS 47 0 10 276
1969281N20292 1969 98 NA NA KARA 1969-10-12 12:00:00 TS 34.9000 -71.9000 50 hurdat_atl main 340 340 O_____________ hurdat_atl AL251969 34.9000 -71.9000 TS 50 0 5 224
1969281N20292 1969 98 NA NA KARA 1969-10-12 15:00:00 TS 34.6025 -71.7313 main 369 369 P_____________ AL251969 34.6025 -71.7313 TS 52 0 8 150
1969281N20292 1969 98 NA NA KARA 1969-10-12 18:00:00 TS 34.2000 -71.4000 55 hurdat_atl main 413 413 O_____________ hurdat_atl AL251969 34.2000 -71.4000 TS 55 0 8 161
1969281N20292 1969 98 NA NA KARA 1969-10-12 21:00:00 TS 33.8699 -71.4206 main 429 427 P_____________ AL251969 33.8699 -71.4206 TS 55 0 6 188
1969281N20292 1969 98 NA NA KARA 1969-10-13 00:00:00 TS 33.6000 -71.5000 55 hurdat_atl main 439 439 O_____________ hurdat_atl AL251969 33.6000 -71.5000 TS 55 0 4 172
1969281N20292 1969 98 NA NA KARA 1969-10-13 03:00:00 TS 33.4494 -71.3515 main 460 460 P_____________ AL251969 33.4494 -71.3515 TS 55 0 3 166
1969281N20292 1969 98 NA NA KARA 1969-10-13 06:00:00 TS 33.3000 -71.4000 55 hurdat_atl main 466 438 O_____________ hurdat_atl AL251969 33.3000 -71.4000 TS 55 0 7 234
1969281N20292 1969 98 NA NA KARA 1969-10-13 09:00:00 TS 33.0387 -72.0183 main 446 405 P_____________ AL251969 33.0387 -72.0183 TS 55 0 13 243
1969281N20292 1969 98 NA NA KARA 1969-10-13 12:00:00 TS 32.7000 -72.8000 55 hurdat_atl main 405 391 O_____________ hurdat_atl AL251969 32.7000 -72.8000 TS 55 0 13 237
1969281N20292 1969 98 NA NA KARA 1969-10-13 15:00:00 TS 32.3220 -73.3370 main 399 392 P_____________ AL251969 32.3220 -73.3370 TS 57 0 12 227
1969281N20292 1969 98 NA NA KARA 1969-10-13 18:00:00 TS 31.9000 -73.8000 60 hurdat_atl main 400 400 O_____________ hurdat_atl AL251969 31.9000 -73.8000 TS 60 0 13 220
1969281N20292 1969 98 NA NA KARA 1969-10-13 21:00:00 TS 31.3601 -74.3034 main 421 421 P_____________ AL251969 31.3601 -74.3034 TS 60 0 12 220
1969281N20292 1969 98 NA NA KARA 1969-10-14 00:00:00 TS 31.0000 -74.7000 60 hurdat_atl main 445 426 O_____________ hurdat_atl AL251969 31.0000 -74.7000 TS 60 0 6 240
1969281N20292 1969 98 NA NA KARA 1969-10-14 03:00:00 TS 31.0871 -74.8646 main 426 393 P_____________ AL251969 31.0871 -74.8646 TS 60 0 5 327
1969281N20292 1969 98 NA NA KARA 1969-10-14 06:00:00 TS 31.4000 -75.0000 60 hurdat_atl main 393 341 O_____________ hurdat_atl AL251969 31.4000 -75.0000 TS 60 0 8 331
1969281N20292 1969 98 NA NA KARA 1969-10-14 09:00:00 TS 31.7827 -75.3262 main 341 301 P_____________ AL251969 31.7827 -75.3262 TS 60 0 8 315
1969281N20292 1969 98 NA NA KARA 1969-10-14 12:00:00 TS 32.0000 -75.7000 60 990 hurdat_atl main 301 290 O_____________ hurdat_atl AL251969 32.0000 -75.7000 TS 60 990 0 7 262
1969281N20292 1969 98 NA NA KARA 1969-10-14 15:00:00 TS 31.6875 -76.1217 main 302 302 P_____________ AL251969 31.6875 -76.1217 TS 60 989 0 9 216
1969281N20292 1969 98 NA NA KARA 1969-10-14 18:00:00 TS 31.3000 -76.3000 60 hurdat_atl main 330 330 I_____________ hurdat_atl AL251969 31.3000 -76.3000 TS 60 989 0 5 163
1969281N20292 1969 98 NA NA KARA 1969-10-14 21:00:00 TS 31.2378 -75.9616 main 354 354 P_____________ AL251969 31.2378 -75.9616 TS 60 988 0 8 83
1969281N20292 1969 98 NA NA KARA 1969-10-15 00:00:00 TS 31.4000 -75.4000 60 988 hurdat_atl main 369 358 O_____________ hurdat_atl AL251969 31.4000 -75.4000 TS 60 988 0 10 58
1969281N20292 1969 98 NA NA KARA 1969-10-15 03:00:00 TS 31.7698 -74.9581 main 352 329 P_____________ AL251969 31.7698 -74.9581 TS 62 987 0 11 44
1969281N20292 1969 98 NA NA KARA 1969-10-15 06:00:00 TS 32.2000 -74.5000 65 hurdat_atl main 334 330 I_____________ hurdat_atl AL251969 32.2000 -74.5000 HU 65 986 1 11 49
1969281N20292 1969 98 NA NA KARA 1969-10-15 09:00:00 TS 32.4648 -74.0142 main 336 336 P_____________ AL251969 32.4648 -74.0142 HU 65 985 1 10 59
1969281N20292 1969 98 NA NA KARA 1969-10-15 12:00:00 TS 32.7000 -73.5000 65 984 hurdat_atl main 355 355 O_____________ hurdat_atl AL251969 32.7000 -73.5000 HU 65 984 1 10 58
1969281N20292 1969 98 NA NA KARA 1969-10-15 15:00:00 TS 33.0073 -72.9651 main 370 370 P_____________ AL251969 33.0073 -72.9651 HU 65 1 11 57
1969281N20292 1969 98 NA NA KARA 1969-10-15 18:00:00 TS 33.3000 -72.4000 65 hurdat_atl main 396 395 O_____________ hurdat_atl AL251969 33.3000 -72.4000 HU 65 1 11 63
1969281N20292 1969 98 NA NA KARA 1969-10-15 21:00:00 TS 33.4998 -71.8067 main 423 423 P_____________ AL251969 33.4998 -71.8067 HU 65 1 11 68
1969281N20292 1969 98 NA NA KARA 1969-10-16 00:00:00 TS 33.7000 -71.2000 65 hurdat_atl main 456 456 O_____________ hurdat_atl AL251969 33.7000 -71.2000 HU 65 1 11 64
1969281N20292 1969 98 NA NA KARA 1969-10-16 03:00:00 TS 33.9922 -70.6001 main 488 488 P_____________ AL251969 33.9922 -70.6001 HU 65 1 12 59
1969281N20292 1969 98 NA NA KARA 1969-10-16 06:00:00 TS 34.3000 -70.0000 65 hurdat_atl main 526 526 O_____________ hurdat_atl AL251969 34.3000 -70.0000 HU 65 1 11 61
1969281N20292 1969 98 NA NA KARA 1969-10-16 09:00:00 TS 34.5267 -69.4284 main 571 568 P_____________ AL251969 34.5267 -69.4284 HU 67 1 11 63
1969281N20292 1969 98 NA NA KARA 1969-10-16 12:00:00 TS 34.8000 -68.8000 70 994 hurdat_atl main 616 616 O_____________ hurdat_atl AL251969 34.8000 -68.8000 HU 70 994 1 13 59
1969281N20292 1969 98 NA NA KARA 1969-10-16 15:00:00 TS 35.1962 -68.0882 main 671 671 P_____________ AL251969 35.1962 -68.0882 HU 72 992 1 16 55
1969281N20292 1969 98 NA NA KARA 1969-10-16 18:00:00 TS 35.7000 -67.2000 75 990 hurdat_atl main 710 694 O_____________ hurdat_atl AL251969 35.7000 -67.2000 HU 75 990 1 20 57
1969281N20292 1969 98 NA NA KARA 1969-10-16 21:00:00 TS 36.2711 -66.0379 main 692 687 P_____________ AL251969 36.2711 -66.0379 HU 75 1 23 58
1969281N20292 1969 98 NA NA KARA 1969-10-17 00:00:00 TS 36.9000 -64.8000 75 hurdat_atl main 695 677 O_____________ hurdat_atl AL251969 36.9000 -64.8000 HU 75 1 22 55
1969281N20292 1969 98 NA NA KARA 1969-10-17 03:00:00 TS 37.5326 -63.7543 main 679 625 P_____________ AL251969 37.5326 -63.7543 HU 75 1 21 52
1969281N20292 1969 98 NA NA KARA 1969-10-17 06:00:00 TS 38.2000 -62.7000 75 hurdat_atl main 628 598 O_____________ hurdat_atl AL251969 38.2000 -62.7000 HU 75 1 22 52
1969281N20292 1969 98 NA NA KARA 1969-10-17 09:00:00 TS 38.8807 -61.5796 main 597 592 P_____________ AL251969 38.8807 -61.5796 HU 77 1 24 54
1969281N20292 1969 98 NA NA KARA 1969-10-17 12:00:00 TS 39.6000 -60.2000 80 985 hurdat_atl main 602 586 O_____________ hurdat_atl AL251969 39.6000 -60.2000 HU 80 985 1 28 60
1969281N20292 1969 98 NA NA KARA 1969-10-17 15:00:00 TS 40.2850 -58.4630 main 584 581 P_____________ AL251969 40.2850 -58.4630 HU 82 981 1 33 63
1969281N20292 1969 98 NA NA KARA 1969-10-17 18:00:00 TS 41.1000 -56.3000 85 978 hurdat_atl main 598 500 O_____________ hurdat_atl AL251969 41.1000 -56.3000 HU 85 978 2 41 62
1969281N20292 1969 98 NA NA KARA 1969-10-17 21:00:00 TS 42.1717 -53.6739 main 489 412 P_____________ AL251969 42.1717 -53.6739 HU 87 978 2 46 62
1969281N20292 1969 98 NA NA KARA 1969-10-18 00:00:00 TS 43.3000 -50.8000 90 hurdat_atl main 412 409 I_____________ hurdat_atl AL251969 43.3000 -50.8000 HU 90 979 2 46 62
1969281N20292 1969 98 NA NA KARA 1969-10-18 03:00:00 TS 44.3414 -48.0349 main 476 476 P_____________ AL251969 44.3414 -48.0349 HU 85 979 2 44 64
1969281N20292 1969 98 NA NA KARA 1969-10-18 06:00:00 TS 45.2000 -45.3000 80 980 hurdat_atl main 613 613 O_____________ hurdat_atl AL251969 45.2000 -45.3000 HU 80 980 1 41 69
1969281N20292 1969 98 NA NA KARA 1969-10-18 09:00:00 TS 45.7791 -42.5992 main 782 782 P_____________ AL251969 45.7791 -42.5992 HU 72 1 38 76
1969281N20292 1969 98 NA NA KARA 1969-10-18 12:00:00 TS 46.1000 -40.0000 65 hurdat_atl main 966 966 O_____________ hurdat_atl AL251969 46.1000 -40.0000 HU 65 1 35 83
1969281N20292 1969 98 NA NA KARA 1969-10-18 15:00:00 TS 46.2254 -37.5069 main 1150 1150 P_____________ AL251969 46.2254 -37.5069 HU 62 0 34 88
1969281N20292 1969 98 NA NA KARA 1969-10-18 18:00:00 TS 46.2000 -35.1000 60 hurdat_atl main 1330 1330 O_____________ hurdat_atl AL251969 46.2000 -35.1000 TS 60 0 35 92
1969281N20292 1969 98 NA NA KARA 1969-10-18 21:00:00 TS 46.1265 -32.5029 main 1527 1527 P_____________ AL251969 46.1265 -32.5029 TS 57 0 33 93
1969281N20292 1969 98 NA NA KARA 1969-10-19 00:00:00 ET 46.0000 -30.3000 55 hurdat_atl main 1577 1498 O_____________ hurdat_atl AL251969 46.0000 -30.3000 EX 55 -4 25 95
1969281N20292 1969 98 NA NA KARA 1969-10-19 03:00:00 ET 45.8885 -28.9040 main 1492 1440 P_____________ AL251969 45.8885 -28.9040 EX 50 -4 16 97
1969281N20292 1969 98 NA NA KARA 1969-10-19 06:00:00 ET 45.8000 -28.0000 45 hurdat_atl main 1440 O_____________ hurdat_atl AL251969 45.8000 -28.0000 EX 45 -4 13 98

About IBTrACS Database

This database is a web-friendly format of International Best Track Archive for Climate Stewardship (IBTrACS), a global best track data archive curated by NOAA dating back to 1842.

Updated: 2021-12-03